sensor_id;sensor_type;location;lat;lon;timestamp;P1;durP1;ratioP1;P2;durP2;ratioP2
19889;SDS011;10107;51.198;6.824;2022-08-21T00:02:53;8.05;;;6.18;;
19889;SDS011;10107;51.198;6.824;2022-08-21T00:06:56;7.93;;;5.93;;
19889;SDS011;10107;51.198;6.824;2022-08-21T00:10:59;9.55;;;7.00;;
19889;SDS011;10107;51.198;6.824;2022-08-21T00:15:01;9.00;;;6.65;;
19889;SDS011;10107;51.198;6.824;2022-08-21T00:19:05;8.50;;;6.27;;
19889;SDS011;10107;51.198;6.824;2022-08-21T00:23:08;7.15;;;5.60;;
19889;SDS011;10107;51.198;6.824;2022-08-21T00:27:10;7.35;;;5.72;;
19889;SDS011;10107;51.198;6.824;2022-08-21T00:31:12;9.30;;;6.55;;
19889;SDS011;10107;51.198;6.824;2022-08-21T00:35:17;9.45;;;6.07;;
19889;SDS011;10107;51.198;6.824;2022-08-21T00:39:21;7.72;;;6.30;;
19889;SDS011;10107;51.198;6.824;2022-08-21T00:43:24;10.63;;;6.88;;
19889;SDS011;10107;51.198;6.824;2022-08-21T00:47:29;7.43;;;6.00;;
19889;SDS011;10107;51.198;6.824;2022-08-21T00:51:35;7.32;;;6.00;;
19889;SDS011;10107;51.198;6.824;2022-08-21T00:55:40;7.13;;;6.03;;
19889;SDS011;10107;51.198;6.824;2022-08-21T00:59:44;9.60;;;6.30;;
19889;SDS011;10107;51.198;6.824;2022-08-21T01:03:50;7.30;;;5.85;;
19889;SDS011;10107;51.198;6.824;2022-08-21T01:07:54;7.05;;;5.65;;
19889;SDS011;10107;51.198;6.824;2022-08-21T01:11:57;8.82;;;6.63;;
19889;SDS011;10107;51.198;6.824;2022-08-21T01:16:00;8.05;;;6.63;;
19889;SDS011;10107;51.198;6.824;2022-08-21T01:20:06;8.05;;;5.72;;
19889;SDS011;10107;51.198;6.824;2022-08-21T01:24:11;9.10;;;6.53;;
19889;SDS011;10107;51.198;6.824;2022-08-21T01:28:13;10.00;;;6.97;;
19889;SDS011;10107;51.198;6.824;2022-08-21T01:32:17;9.23;;;7.47;;
19889;SDS011;10107;51.198;6.824;2022-08-21T01:36:20;9.15;;;7.30;;
19889;SDS011;10107;51.198;6.824;2022-08-21T01:40:24;8.63;;;7.05;;
19889;SDS011;10107;51.198;6.824;2022-08-21T01:44:26;8.77;;;7.22;;
19889;SDS011;10107;51.198;6.824;2022-08-21T01:48:28;9.98;;;7.57;;
19889;SDS011;10107;51.198;6.824;2022-08-21T01:52:30;10.25;;;7.10;;
19889;SDS011;10107;51.198;6.824;2022-08-21T01:56:36;10.38;;;7.20;;
19889;SDS011;10107;51.198;6.824;2022-08-21T02:00:40;11.05;;;7.78;;
19889;SDS011;10107;51.198;6.824;2022-08-21T02:04:42;10.32;;;7.63;;
19889;SDS011;10107;51.198;6.824;2022-08-21T02:08:44;10.63;;;7.20;;
19889;SDS011;10107;51.198;6.824;2022-08-21T02:12:47;9.82;;;6.85;;
19889;SDS011;10107;51.198;6.824;2022-08-21T02:16:49;11.13;;;7.90;;
19889;SDS011;10107;51.198;6.824;2022-08-21T02:20:51;10.85;;;7.47;;
19889;SDS011;10107;51.198;6.824;2022-08-21T02:24:53;8.43;;;7.00;;
19889;SDS011;10107;51.198;6.824;2022-08-21T02:28:56;12.50;;;8.27;;
19889;SDS011;10107;51.198;6.824;2022-08-21T02:32:58;8.65;;;7.60;;
19889;SDS011;10107;51.198;6.824;2022-08-21T02:37:01;11.23;;;8.35;;
19889;SDS011;10107;51.198;6.824;2022-08-21T02:41:03;9.13;;;7.38;;
19889;SDS011;10107;51.198;6.824;2022-08-21T02:45:07;11.70;;;7.83;;
19889;SDS011;10107;51.198;6.824;2022-08-21T02:49:10;10.13;;;7.20;;
19889;SDS011;10107;51.198;6.824;2022-08-21T02:53:12;10.65;;;7.82;;
19889;SDS011;10107;51.198;6.824;2022-08-21T02:57:16;9.43;;;8.13;;
19889;SDS011;10107;51.198;6.824;2022-08-21T03:01:19;13.70;;;8.23;;
19889;SDS011;10107;51.198;6.824;2022-08-21T03:05:22;13.40;;;9.82;;
19889;SDS011;10107;51.198;6.824;2022-08-21T03:09:25;13.70;;;9.38;;
19889;SDS011;10107;51.198;6.824;2022-08-21T03:13:27;12.00;;;8.35;;
19889;SDS011;10107;51.198;6.824;2022-08-21T03:17:33;10.25;;;7.80;;
19889;SDS011;10107;51.198;6.824;2022-08-21T03:21:35;14.18;;;9.63;;
19889;SDS011;10107;51.198;6.824;2022-08-21T03:25:37;11.70;;;8.70;;
19889;SDS011;10107;51.198;6.824;2022-08-21T03:29:39;10.77;;;8.23;;
19889;SDS011;10107;51.198;6.824;2022-08-21T03:33:43;10.02;;;8.43;;
19889;SDS011;10107;51.198;6.824;2022-08-21T03:37:45;11.93;;;8.88;;
19889;SDS011;10107;51.198;6.824;2022-08-21T03:41:47;11.35;;;8.48;;
19889;SDS011;10107;51.198;6.824;2022-08-21T03:45:49;11.40;;;8.10;;
19889;SDS011;10107;51.198;6.824;2022-08-21T03:49:53;12.18;;;9.73;;
19889;SDS011;10107;51.198;6.824;2022-08-21T03:53:55;14.63;;;9.43;;
19889;SDS011;10107;51.198;6.824;2022-08-21T03:57:56;12.05;;;8.07;;
19889;SDS011;10107;51.198;6.824;2022-08-21T04:01:59;11.95;;;9.13;;
19889;SDS011;10107;51.198;6.824;2022-08-21T04:06:04;12.80;;;9.88;;
19889;SDS011;10107;51.198;6.824;2022-08-21T04:10:07;12.55;;;8.15;;
19889;SDS011;10107;51.198;6.824;2022-08-21T04:14:09;12.80;;;8.60;;
19889;SDS011;10107;51.198;6.824;2022-08-21T04:18:11;10.98;;;7.93;;
19889;SDS011;10107;51.198;6.824;2022-08-21T04:22:15;11.00;;;7.82;;
19889;SDS011;10107;51.198;6.824;2022-08-21T04:26:17;10.38;;;8.20;;
19889;SDS011;10107;51.198;6.824;2022-08-21T04:30:19;10.13;;;8.05;;
19889;SDS011;10107;51.198;6.824;2022-08-21T04:34:22;9.88;;;7.65;;
19889;SDS011;10107;51.198;6.824;2022-08-21T04:38:25;8.85;;;7.55;;
19889;SDS011;10107;51.198;6.824;2022-08-21T04:42:27;12.10;;;8.57;;
19889;SDS011;10107;51.198;6.824;2022-08-21T04:46:29;12.77;;;8.57;;
19889;SDS011;10107;51.198;6.824;2022-08-21T04:50:40;11.25;;;8.50;;
19889;SDS011;10107;51.198;6.824;2022-08-21T04:54:46;13.37;;;8.77;;
19889;SDS011;10107;51.198;6.824;2022-08-21T04:58:51;11.85;;;9.02;;
19889;SDS011;10107;51.198;6.824;2022-08-21T05:02:56;13.55;;;9.05;;
19889;SDS011;10107;51.198;6.824;2022-08-21T05:07:02;11.48;;;8.48;;
19889;SDS011;10107;51.198;6.824;2022-08-21T05:11:08;10.48;;;7.63;;
19889;SDS011;10107;51.198;6.824;2022-08-21T05:15:11;8.68;;;6.90;;
19889;SDS011;10107;51.198;6.824;2022-08-21T05:19:14;9.45;;;7.05;;
19889;SDS011;10107;51.198;6.824;2022-08-21T05:23:16;11.95;;;7.50;;
19889;SDS011;10107;51.198;6.824;2022-08-21T05:27:19;10.68;;;7.60;;
19889;SDS011;10107;51.198;6.824;2022-08-21T05:31:21;7.47;;;5.27;;
19889;SDS011;10107;51.198;6.824;2022-08-21T05:35:23;8.38;;;6.88;;
19889;SDS011;10107;51.198;6.824;2022-08-21T05:39:26;9.38;;;7.57;;
19889;SDS011;10107;51.198;6.824;2022-08-21T05:43:29;11.20;;;7.95;;
19889;SDS011;10107;51.198;6.824;2022-08-21T05:47:33;11.27;;;7.68;;
19889;SDS011;10107;51.198;6.824;2022-08-21T05:51:35;12.50;;;7.80;;
19889;SDS011;10107;51.198;6.824;2022-08-21T05:55:38;9.57;;;7.25;;
19889;SDS011;10107;51.198;6.824;2022-08-21T05:59:42;11.53;;;8.47;;
19889;SDS011;10107;51.198;6.824;2022-08-21T06:03:44;10.02;;;8.00;;
19889;SDS011;10107;51.198;6.824;2022-08-21T06:07:46;10.30;;;7.50;;
19889;SDS011;10107;51.198;6.824;2022-08-21T06:11:48;9.52;;;7.85;;
19889;SDS011;10107;51.198;6.824;2022-08-21T06:15:59;9.25;;;6.45;;
19889;SDS011;10107;51.198;6.824;2022-08-21T06:20:03;7.82;;;5.05;;
19889;SDS011;10107;51.198;6.824;2022-08-21T06:24:06;8.63;;;5.43;;
19889;SDS011;10107;51.198;6.824;2022-08-21T06:28:08;8.38;;;4.38;;
19889;SDS011;10107;51.198;6.824;2022-08-21T06:36:14;8.80;;;4.95;;
19889;SDS011;10107;51.198;6.824;2022-08-21T06:40:16;6.80;;;4.50;;
19889;SDS011;10107;51.198;6.824;2022-08-21T06:44:18;6.22;;;3.70;;
19889;SDS011;10107;51.198;6.824;2022-08-21T06:48:22;6.72;;;3.53;;
19889;SDS011;10107;51.198;6.824;2022-08-21T06:52:24;7.35;;;3.50;;
19889;SDS011;10107;51.198;6.824;2022-08-21T06:56:26;5.73;;;3.10;;
19889;SDS011;10107;51.198;6.824;2022-08-21T07:00:28;4.23;;;2.50;;
19889;SDS011;10107;51.198;6.824;2022-08-21T07:04:32;7.90;;;3.00;;
19889;SDS011;10107;51.198;6.824;2022-08-21T07:08:34;4.43;;;2.28;;
19889;SDS011;10107;51.198;6.824;2022-08-21T07:12:36;4.25;;;2.38;;
19889;SDS011;10107;51.198;6.824;2022-08-21T07:16:38;5.53;;;2.10;;
19889;SDS011;10107;51.198;6.824;2022-08-21T07:20:41;5.65;;;2.58;;
19889;SDS011;10107;51.198;6.824;2022-08-21T07:24:43;7.55;;;2.55;;
19889;SDS011;10107;51.198;6.824;2022-08-21T07:28:45;6.37;;;2.40;;
19889;SDS011;10107;51.198;6.824;2022-08-21T07:32:47;3.95;;;1.92;;
19889;SDS011;10107;51.198;6.824;2022-08-21T07:36:51;6.13;;;2.50;;
19889;SDS011;10107;51.198;6.824;2022-08-21T07:40:54;5.28;;;2.25;;
19889;SDS011;10107;51.198;6.824;2022-08-21T07:44:59;3.92;;;1.48;;
19889;SDS011;10107;51.198;6.824;2022-08-21T07:49:01;6.70;;;2.13;;
19889;SDS011;10107;51.198;6.824;2022-08-21T07:53:04;4.90;;;2.28;;
19889;SDS011;10107;51.198;6.824;2022-08-21T07:57:07;7.15;;;1.75;;
19889;SDS011;10107;51.198;6.824;2022-08-21T08:01:09;3.40;;;1.87;;
19889;SDS011;10107;51.198;6.824;2022-08-21T08:05:12;3.08;;;1.58;;
19889;SDS011;10107;51.198;6.824;2022-08-21T08:09:15;4.78;;;1.70;;
19889;SDS011;10107;51.198;6.824;2022-08-21T08:13:18;3.08;;;1.50;;
19889;SDS011;10107;51.198;6.824;2022-08-21T08:17:19;3.10;;;1.55;;
19889;SDS011;10107;51.198;6.824;2022-08-21T08:21:23;3.70;;;1.40;;
19889;SDS011;10107;51.198;6.824;2022-08-21T08:25:26;3.25;;;1.30;;
19889;SDS011;10107;51.198;6.824;2022-08-21T08:29:29;2.15;;;1.02;;
19889;SDS011;10107;51.198;6.824;2022-08-21T08:33:31;3.33;;;1.30;;
19889;SDS011;10107;51.198;6.824;2022-08-21T08:37:33;2.00;;;1.05;;
19889;SDS011;10107;51.198;6.824;2022-08-21T08:41:39;2.33;;;1.20;;
19889;SDS011;10107;51.198;6.824;2022-08-21T08:45:42;3.38;;;1.23;;
19889;SDS011;10107;51.198;6.824;2022-08-21T08:49:52;3.83;;;1.40;;
19889;SDS011;10107;51.198;6.824;2022-08-21T08:53:59;2.28;;;1.20;;
19889;SDS011;10107;51.198;6.824;2022-08-21T08:58:06;2.90;;;1.17;;
19889;SDS011;10107;51.198;6.824;2022-08-21T09:02:11;2.47;;;1.10;;
19889;SDS011;10107;51.198;6.824;2022-08-21T09:06:16;3.10;;;1.30;;
19889;SDS011;10107;51.198;6.824;2022-08-21T09:10:30;2.25;;;1.20;;
19889;SDS011;10107;51.198;6.824;2022-08-21T09:14:46;1.70;;;0.85;;
19889;SDS011;10107;51.198;6.824;2022-08-21T09:19:03;2.50;;;1.02;;
19889;SDS011;10107;51.198;6.824;2022-08-21T09:23:15;2.17;;;1.00;;
19889;SDS011;10107;51.198;6.824;2022-08-21T09:27:23;1.52;;;0.80;;
19889;SDS011;10107;51.198;6.824;2022-08-21T09:31:27;3.08;;;1.23;;
19889;SDS011;10107;51.198;6.824;2022-08-21T09:35:31;2.65;;;1.10;;
19889;SDS011;10107;51.198;6.824;2022-08-21T09:39:38;2.35;;;1.00;;
19889;SDS011;10107;51.198;6.824;2022-08-21T09:43:51;2.45;;;1.20;;
19889;SDS011;10107;51.198;6.824;2022-08-21T09:47:55;5.20;;;1.38;;
19889;SDS011;10107;51.198;6.824;2022-08-21T09:51:57;3.30;;;1.52;;
19889;SDS011;10107;51.198;6.824;2022-08-21T09:56:01;3.63;;;1.50;;
19889;SDS011;10107;51.198;6.824;2022-08-21T10:00:24;4.60;;;1.48;;
19889;SDS011;10107;51.198;6.824;2022-08-21T10:04:32;3.17;;;1.63;;
19889;SDS011;10107;51.198;6.824;2022-08-21T10:08:36;3.45;;;2.10;;
19889;SDS011;10107;51.198;6.824;2022-08-21T10:12:48;4.13;;;1.65;;
19889;SDS011;10107;51.198;6.824;2022-08-21T10:16:57;4.03;;;1.30;;
19889;SDS011;10107;51.198;6.824;2022-08-21T10:21:08;3.55;;;1.67;;
19889;SDS011;10107;51.198;6.824;2022-08-21T10:25:17;3.38;;;1.45;;
19889;SDS011;10107;51.198;6.824;2022-08-21T10:29:28;5.60;;;1.88;;
19889;SDS011;10107;51.198;6.824;2022-08-21T10:33:42;4.60;;;1.50;;
19889;SDS011;10107;51.198;6.824;2022-08-21T10:37:59;4.88;;;1.63;;
19889;SDS011;10107;51.198;6.824;2022-08-21T10:42:33;3.03;;;1.30;;
19889;SDS011;10107;51.198;6.824;2022-08-21T10:46:42;2.72;;;1.35;;
19889;SDS011;10107;51.198;6.824;2022-08-21T10:50:50;2.28;;;1.23;;
19889;SDS011;10107;51.198;6.824;2022-08-21T10:54:57;4.47;;;1.20;;
19889;SDS011;10107;51.198;6.824;2022-08-21T10:59:07;1.98;;;1.27;;
19889;SDS011;10107;51.198;6.824;2022-08-21T11:03:27;3.22;;;1.50;;
19889;SDS011;10107;51.198;6.824;2022-08-21T11:07:36;5.13;;;1.80;;
19889;SDS011;10107;51.198;6.824;2022-08-21T11:11:44;6.00;;;1.40;;
19889;SDS011;10107;51.198;6.824;2022-08-21T11:15:52;2.63;;;1.10;;
19889;SDS011;10107;51.198;6.824;2022-08-21T11:19:59;2.85;;;1.30;;
19889;SDS011;10107;51.198;6.824;2022-08-21T11:24:13;4.55;;;1.50;;
19889;SDS011;10107;51.198;6.824;2022-08-21T11:28:25;2.83;;;1.45;;
19889;SDS011;10107;51.198;6.824;2022-08-21T11:32:36;3.97;;;1.23;;
19889;SDS011;10107;51.198;6.824;2022-08-21T11:36:50;3.85;;;1.42;;
19889;SDS011;10107;51.198;6.824;2022-08-21T11:41:02;3.75;;;1.40;;
19889;SDS011;10107;51.198;6.824;2022-08-21T11:45:14;2.67;;;1.17;;
19889;SDS011;10107;51.198;6.824;2022-08-21T11:49:28;3.60;;;1.10;;
19889;SDS011;10107;51.198;6.824;2022-08-21T11:53:43;3.47;;;1.48;;
19889;SDS011;10107;51.198;6.824;2022-08-21T11:57:54;3.97;;;1.55;;
19889;SDS011;10107;51.198;6.824;2022-08-21T12:02:02;2.30;;;1.20;;
19889;SDS011;10107;51.198;6.824;2022-08-21T12:06:11;4.97;;;1.73;;
19889;SDS011;10107;51.198;6.824;2022-08-21T12:10:15;3.90;;;1.45;;
19889;SDS011;10107;51.198;6.824;2022-08-21T12:14:21;3.17;;;1.27;;
19889;SDS011;10107;51.198;6.824;2022-08-21T12:18:29;1.60;;;1.00;;
19889;SDS011;10107;51.198;6.824;2022-08-21T12:22:35;4.72;;;1.50;;
19889;SDS011;10107;51.198;6.824;2022-08-21T12:26:47;3.67;;;1.30;;
19889;SDS011;10107;51.198;6.824;2022-08-21T12:30:50;3.20;;;1.23;;
19889;SDS011;10107;51.198;6.824;2022-08-21T12:34:55;2.60;;;1.23;;
19889;SDS011;10107;51.198;6.824;2022-08-21T12:39:03;2.55;;;1.08;;
19889;SDS011;10107;51.198;6.824;2022-08-21T12:43:13;3.33;;;1.10;;
19889;SDS011;10107;51.198;6.824;2022-08-21T12:47:22;2.72;;;1.38;;
19889;SDS011;10107;51.198;6.824;2022-08-21T12:51:32;2.55;;;1.10;;
19889;SDS011;10107;51.198;6.824;2022-08-21T12:55:40;2.45;;;1.38;;
19889;SDS011;10107;51.198;6.824;2022-08-21T12:59:44;3.28;;;1.20;;
19889;SDS011;10107;51.198;6.824;2022-08-21T13:03:45;3.47;;;1.10;;
19889;SDS011;10107;51.198;6.824;2022-08-21T13:07:50;2.25;;;1.10;;
19889;SDS011;10107;51.198;6.824;2022-08-21T13:11:52;3.00;;;1.20;;
19889;SDS011;10107;51.198;6.824;2022-08-21T13:15:58;3.90;;;1.13;;
19889;SDS011;10107;51.198;6.824;2022-08-21T13:20:03;2.00;;;1.05;;
19889;SDS011;10107;51.198;6.824;2022-08-21T13:24:17;3.25;;;1.25;;
19889;SDS011;10107;51.198;6.824;2022-08-21T13:32:24;1.73;;;1.00;;
19889;SDS011;10107;51.198;6.824;2022-08-21T13:36:29;1.33;;;0.80;;
19889;SDS011;10107;51.198;6.824;2022-08-21T13:40:39;1.83;;;1.17;;
19889;SDS011;10107;51.198;6.824;2022-08-21T13:44:47;1.70;;;1.02;;
19889;SDS011;10107;51.198;6.824;2022-08-21T13:48:49;1.65;;;1.10;;
19889;SDS011;10107;51.198;6.824;2022-08-21T13:52:57;3.50;;;0.83;;
19889;SDS011;10107;51.198;6.824;2022-08-21T13:57:03;2.10;;;0.80;;
19889;SDS011;10107;51.198;6.824;2022-08-21T14:01:05;2.53;;;1.48;;
19889;SDS011;10107;51.198;6.824;2022-08-21T14:05:07;2.78;;;1.10;;
19889;SDS011;10107;51.198;6.824;2022-08-21T14:09:21;1.95;;;1.13;;
19889;SDS011;10107;51.198;6.824;2022-08-21T14:13:33;2.30;;;1.10;;
19889;SDS011;10107;51.198;6.824;2022-08-21T14:17:39;2.72;;;1.08;;
19889;SDS011;10107;51.198;6.824;2022-08-21T14:21:42;1.38;;;0.88;;
19889;SDS011;10107;51.198;6.824;2022-08-21T14:25:45;2.28;;;1.08;;
19889;SDS011;10107;51.198;6.824;2022-08-21T14:29:48;3.50;;;1.00;;
19889;SDS011;10107;51.198;6.824;2022-08-21T14:33:51;2.22;;;1.10;;
19889;SDS011;10107;51.198;6.824;2022-08-21T14:37:53;1.77;;;1.10;;
19889;SDS011;10107;51.198;6.824;2022-08-21T14:41:56;2.87;;;1.03;;
19889;SDS011;10107;51.198;6.824;2022-08-21T14:46:01;1.75;;;1.02;;
19889;SDS011;10107;51.198;6.824;2022-08-21T14:54:05;2.00;;;0.98;;
19889;SDS011;10107;51.198;6.824;2022-08-21T14:58:07;3.67;;;1.00;;
19889;SDS011;10107;51.198;6.824;2022-08-21T15:02:10;2.65;;;1.10;;
19889;SDS011;10107;51.198;6.824;2022-08-21T15:06:13;2.75;;;0.90;;
19889;SDS011;10107;51.198;6.824;2022-08-21T15:10:14;3.13;;;1.00;;
19889;SDS011;10107;51.198;6.824;2022-08-21T15:14:17;2.17;;;1.38;;
19889;SDS011;10107;51.198;6.824;2022-08-21T15:18:24;2.55;;;1.30;;
19889;SDS011;10107;51.198;6.824;2022-08-21T15:22:28;3.08;;;1.20;;
19889;SDS011;10107;51.198;6.824;2022-08-21T15:26:30;2.55;;;1.20;;
19889;SDS011;10107;51.198;6.824;2022-08-21T15:30:32;6.50;;;1.30;;
19889;SDS011;10107;51.198;6.824;2022-08-21T15:34:36;2.67;;;1.20;;
19889;SDS011;10107;51.198;6.824;2022-08-21T15:38:38;2.20;;;0.98;;
19889;SDS011;10107;51.198;6.824;2022-08-21T15:42:40;2.95;;;1.02;;
19889;SDS011;10107;51.198;6.824;2022-08-21T15:46:43;1.83;;;1.08;;
19889;SDS011;10107;51.198;6.824;2022-08-21T15:50:47;2.27;;;1.10;;
19889;SDS011;10107;51.198;6.824;2022-08-21T15:54:50;1.98;;;1.00;;
19889;SDS011;10107;51.198;6.824;2022-08-21T15:58:53;2.30;;;1.17;;
19889;SDS011;10107;51.198;6.824;2022-08-21T16:03:00;1.40;;;0.98;;
19889;SDS011;10107;51.198;6.824;2022-08-21T16:07:07;1.92;;;0.98;;
19889;SDS011;10107;51.198;6.824;2022-08-21T16:11:09;1.90;;;0.85;;
19889;SDS011;10107;51.198;6.824;2022-08-21T16:15:12;2.65;;;0.90;;
19889;SDS011;10107;51.198;6.824;2022-08-21T16:19:16;1.60;;;0.90;;
19889;SDS011;10107;51.198;6.824;2022-08-21T16:23:20;3.20;;;0.90;;
19889;SDS011;10107;51.198;6.824;2022-08-21T16:31:24;2.80;;;1.10;;
19889;SDS011;10107;51.198;6.824;2022-08-21T16:35:26;1.75;;;1.17;;
19889;SDS011;10107;51.198;6.824;2022-08-21T16:39:29;1.55;;;1.00;;
19889;SDS011;10107;51.198;6.824;2022-08-21T16:43:32;3.17;;;1.35;;
19889;SDS011;10107;51.198;6.824;2022-08-21T16:47:34;2.63;;;1.00;;
19889;SDS011;10107;51.198;6.824;2022-08-21T16:51:35;1.95;;;0.90;;
19889;SDS011;10107;51.198;6.824;2022-08-21T16:55:39;2.15;;;1.08;;
19889;SDS011;10107;51.198;6.824;2022-08-21T16:59:41;2.47;;;1.10;;
19889;SDS011;10107;51.198;6.824;2022-08-21T17:03:45;2.05;;;1.00;;
19889;SDS011;10107;51.198;6.824;2022-08-21T17:07:49;2.40;;;1.38;;
19889;SDS011;10107;51.198;6.824;2022-08-21T17:11:52;2.03;;;1.10;;
19889;SDS011;10107;51.198;6.824;2022-08-21T17:15:54;2.03;;;1.00;;
19889;SDS011;10107;51.198;6.824;2022-08-21T17:19:56;2.20;;;1.10;;
19889;SDS011;10107;51.198;6.824;2022-08-21T17:23:58;3.33;;;1.25;;
19889;SDS011;10107;51.198;6.824;2022-08-21T17:28:02;2.87;;;1.30;;
19889;SDS011;10107;51.198;6.824;2022-08-21T17:32:06;2.22;;;1.42;;
19889;SDS011;10107;51.198;6.824;2022-08-21T17:36:11;1.60;;;0.90;;
19889;SDS011;10107;51.198;6.824;2022-08-21T17:40:13;2.67;;;1.20;;
19889;SDS011;10107;51.198;6.824;2022-08-21T17:44:17;2.50;;;1.20;;
19889;SDS011;10107;51.198;6.824;2022-08-21T17:48:20;1.60;;;1.20;;
19889;SDS011;10107;51.198;6.824;2022-08-21T17:52:22;1.83;;;1.25;;
19889;SDS011;10107;51.198;6.824;2022-08-21T17:56:25;2.15;;;1.30;;
19889;SDS011;10107;51.198;6.824;2022-08-21T18:00:32;2.97;;;1.30;;
19889;SDS011;10107;51.198;6.824;2022-08-21T18:04:35;4.35;;;1.48;;
19889;SDS011;10107;51.198;6.824;2022-08-21T18:08:37;4.85;;;1.95;;
19889;SDS011;10107;51.198;6.824;2022-08-21T18:12:39;2.80;;;1.40;;
19889;SDS011;10107;51.198;6.824;2022-08-21T18:16:44;3.55;;;1.40;;
19889;SDS011;10107;51.198;6.824;2022-08-21T18:20:48;2.45;;;1.40;;
19889;SDS011;10107;51.198;6.824;2022-08-21T18:24:50;3.97;;;1.50;;
19889;SDS011;10107;51.198;6.824;2022-08-21T18:28:54;2.70;;;1.70;;
19889;SDS011;10107;51.198;6.824;2022-08-21T18:33:02;3.10;;;1.60;;
19889;SDS011;10107;51.198;6.824;2022-08-21T18:37:04;1.83;;;1.50;;
19889;SDS011;10107;51.198;6.824;2022-08-21T18:41:07;2.33;;;1.40;;
19889;SDS011;10107;51.198;6.824;2022-08-21T18:45:10;2.42;;;1.63;;
19889;SDS011;10107;51.198;6.824;2022-08-21T18:49:16;2.58;;;1.50;;
19889;SDS011;10107;51.198;6.824;2022-08-21T18:53:19;2.50;;;1.55;;
19889;SDS011;10107;51.198;6.824;2022-08-21T18:57:21;2.72;;;1.80;;
19889;SDS011;10107;51.198;6.824;2022-08-21T19:01:24;3.97;;;1.92;;
19889;SDS011;10107;51.198;6.824;2022-08-21T19:05:27;2.13;;;1.65;;
19889;SDS011;10107;51.198;6.824;2022-08-21T19:09:30;2.35;;;1.83;;
19889;SDS011;10107;51.198;6.824;2022-08-21T19:13:32;2.50;;;1.80;;
19889;SDS011;10107;51.198;6.824;2022-08-21T19:17:35;3.30;;;2.00;;
19889;SDS011;10107;51.198;6.824;2022-08-21T19:21:39;3.47;;;2.35;;
19889;SDS011;10107;51.198;6.824;2022-08-21T19:25:51;2.35;;;2.08;;
19889;SDS011;10107;51.198;6.824;2022-08-21T19:29:57;4.82;;;2.42;;
19889;SDS011;10107;51.198;6.824;2022-08-21T19:34:01;3.92;;;2.50;;
19889;SDS011;10107;51.198;6.824;2022-08-21T19:38:08;2.95;;;2.00;;
19889;SDS011;10107;51.198;6.824;2022-08-21T19:42:10;3.35;;;2.28;;
19889;SDS011;10107;51.198;6.824;2022-08-21T19:46:14;2.60;;;1.80;;
19889;SDS011;10107;51.198;6.824;2022-08-21T19:50:24;2.92;;;2.13;;
19889;SDS011;10107;51.198;6.824;2022-08-21T19:54:29;2.80;;;2.00;;
19889;SDS011;10107;51.198;6.824;2022-08-21T19:58:33;4.10;;;2.05;;
19889;SDS011;10107;51.198;6.824;2022-08-21T20:02:38;3.08;;;2.00;;
19889;SDS011;10107;51.198;6.824;2022-08-21T20:06:42;2.13;;;1.70;;
19889;SDS011;10107;51.198;6.824;2022-08-21T20:10:46;3.15;;;1.90;;
19889;SDS011;10107;51.198;6.824;2022-08-21T20:14:49;2.92;;;2.35;;
19889;SDS011;10107;51.198;6.824;2022-08-21T20:18:51;4.57;;;2.20;;
19889;SDS011;10107;51.198;6.824;2022-08-21T20:22:54;3.58;;;2.40;;
19889;SDS011;10107;51.198;6.824;2022-08-21T20:26:57;3.17;;;1.77;;
19889;SDS011;10107;51.198;6.824;2022-08-21T20:31:01;3.50;;;2.40;;
19889;SDS011;10107;51.198;6.824;2022-08-21T20:35:04;2.15;;;1.90;;
19889;SDS011;10107;51.198;6.824;2022-08-21T20:39:07;2.03;;;1.73;;
19889;SDS011;10107;51.198;6.824;2022-08-21T20:43:11;3.72;;;1.88;;
19889;SDS011;10107;51.198;6.824;2022-08-21T20:47:13;3.30;;;1.95;;
19889;SDS011;10107;51.198;6.824;2022-08-21T20:51:18;5.53;;;2.50;;
19889;SDS011;10107;51.198;6.824;2022-08-21T20:55:24;3.90;;;2.30;;
19889;SDS011;10107;51.198;6.824;2022-08-21T20:59:36;3.33;;;1.90;;
19889;SDS011;10107;51.198;6.824;2022-08-21T21:03:44;4.75;;;2.20;;
19889;SDS011;10107;51.198;6.824;2022-08-21T21:07:52;4.35;;;2.00;;
19889;SDS011;10107;51.198;6.824;2022-08-21T21:11:59;3.53;;;2.00;;
19889;SDS011;10107;51.198;6.824;2022-08-21T21:16:09;4.18;;;2.05;;
19889;SDS011;10107;51.198;6.824;2022-08-21T21:20:15;2.67;;;1.95;;
19889;SDS011;10107;51.198;6.824;2022-08-21T21:24:22;2.70;;;1.88;;
19889;SDS011;10107;51.198;6.824;2022-08-21T21:28:29;4.05;;;2.10;;
19889;SDS011;10107;51.198;6.824;2022-08-21T21:32:41;2.95;;;1.92;;
19889;SDS011;10107;51.198;6.824;2022-08-21T21:36:46;4.13;;;1.95;;
19889;SDS011;10107;51.198;6.824;2022-08-21T21:40:58;4.03;;;1.65;;
19889;SDS011;10107;51.198;6.824;2022-08-21T21:45:12;3.03;;;1.85;;
19889;SDS011;10107;51.198;6.824;2022-08-21T21:53:55;4.50;;;2.00;;
19889;SDS011;10107;51.198;6.824;2022-08-21T21:58:28;3.13;;;1.60;;
19889;SDS011;10107;51.198;6.824;2022-08-21T22:02:53;3.65;;;1.95;;
19889;SDS011;10107;51.198;6.824;2022-08-21T22:07:05;3.35;;;1.73;;
19889;SDS011;10107;51.198;6.824;2022-08-21T22:11:17;3.50;;;1.88;;
19889;SDS011;10107;51.198;6.824;2022-08-21T22:15:27;4.53;;;2.10;;
19889;SDS011;10107;51.198;6.824;2022-08-21T22:19:29;4.13;;;2.10;;
19889;SDS011;10107;51.198;6.824;2022-08-21T22:23:39;4.38;;;2.22;;
19889;SDS011;10107;51.198;6.824;2022-08-21T22:27:44;4.45;;;2.50;;
19889;SDS011;10107;51.198;6.824;2022-08-21T22:32:01;3.83;;;2.10;;
19889;SDS011;10107;51.198;6.824;2022-08-21T22:36:13;3.47;;;1.98;;
19889;SDS011;10107;51.198;6.824;2022-08-21T22:40:21;3.08;;;1.90;;
19889;SDS011;10107;51.198;6.824;2022-08-21T22:44:26;4.68;;;2.25;;
19889;SDS011;10107;51.198;6.824;2022-08-21T22:48:29;3.42;;;2.03;;
19889;SDS011;10107;51.198;6.824;2022-08-21T22:52:35;3.03;;;1.90;;
19889;SDS011;10107;51.198;6.824;2022-08-21T22:56:46;5.55;;;1.90;;
19889;SDS011;10107;51.198;6.824;2022-08-21T23:01:00;2.70;;;1.95;;
19889;SDS011;10107;51.198;6.824;2022-08-21T23:05:09;4.00;;;1.98;;
19889;SDS011;10107;51.198;6.824;2022-08-21T23:09:20;3.97;;;1.85;;
19889;SDS011;10107;51.198;6.824;2022-08-21T23:13:37;3.83;;;2.13;;
19889;SDS011;10107;51.198;6.824;2022-08-21T23:17:45;3.78;;;1.90;;
19889;SDS011;10107;51.198;6.824;2022-08-21T23:21:54;2.58;;;1.60;;
19889;SDS011;10107;51.198;6.824;2022-08-21T23:26:05;4.47;;;1.75;;
19889;SDS011;10107;51.198;6.824;2022-08-21T23:30:20;3.22;;;2.15;;
19889;SDS011;10107;51.198;6.824;2022-08-21T23:34:27;4.15;;;1.77;;
19889;SDS011;10107;51.198;6.824;2022-08-21T23:38:42;3.55;;;1.98;;
19889;SDS011;10107;51.198;6.824;2022-08-21T23:42:58;2.85;;;1.75;;
19889;SDS011;10107;51.198;6.824;2022-08-21T23:47:17;3.88;;;1.67;;
19889;SDS011;10107;51.198;6.824;2022-08-21T23:51:32;2.95;;;2.15;;
19889;SDS011;10107;51.198;6.824;2022-08-21T23:55:47;4.47;;;1.90;;
